sensor_id;sensor_type;location;lat;lon;timestamp;pressure;altitude;pressure_sealevel;temperature;humidity
54910;BME280;63189;51.240;9.964;2023-03-21T00:00:20;97993.66;;;7.23;90.00
54910;BME280;63189;51.240;9.964;2023-03-21T00:02:46;97987.63;;;7.22;90.60
54910;BME280;63189;51.240;9.964;2023-03-21T00:05:11;97989.31;;;7.25;90.19
54910;BME280;63189;51.240;9.964;2023-03-21T00:07:37;97981.53;;;7.25;90.26
54910;BME280;63189;51.240;9.964;2023-03-21T00:10:03;97983.22;;;7.26;90.46
54910;BME280;63189;51.240;9.964;2023-03-21T00:12:28;97980.66;;;7.24;90.27
54910;BME280;63189;51.240;9.964;2023-03-21T00:14:57;97966.16;;;7.13;90.41
54910;BME280;63189;51.240;9.964;2023-03-21T00:17:30;97974.72;;;7.19;89.85
54910;BME280;63189;51.240;9.964;2023-03-21T00:19:57;97965.38;;;7.09;89.78
54910;BME280;63189;51.240;9.964;2023-03-21T00:22:23;97984.19;;;7.20;89.67
54910;BME280;63189;51.240;9.964;2023-03-21T00:24:49;97982.50;;;7.19;89.37
54910;BME280;63189;51.240;9.964;2023-03-21T00:27:16;97967.06;;;7.12;89.60
54910;BME280;63189;51.240;9.964;2023-03-21T00:29:43;97973.03;;;7.15;89.69
54910;BME280;63189;51.240;9.964;2023-03-21T00:32:09;97976.59;;;7.08;89.40
54910;BME280;63189;51.240;9.964;2023-03-21T00:34:34;97980.91;;;7.11;90.30
54910;BME280;63189;51.240;9.964;2023-03-21T00:37:02;97974.13;;;7.02;90.09
54910;BME280;63189;51.240;9.964;2023-03-21T00:39:27;97987.84;;;7.09;89.87
54910;BME280;63189;51.240;9.964;2023-03-21T00:41:53;97977.47;;;7.10;89.76
54910;BME280;63189;51.240;9.964;2023-03-21T00:44:18;97966.25;;;7.07;90.15
54910;BME280;63189;51.240;9.964;2023-03-21T00:46:43;97971.31;;;7.14;89.55
54910;BME280;63189;51.240;9.964;2023-03-21T00:49:09;97960.19;;;7.09;89.23
54910;BME280;63189;51.240;9.964;2023-03-21T00:51:34;97973.91;;;7.14;89.75
54910;BME280;63189;51.240;9.964;2023-03-21T00:54:00;97956.75;;;7.07;89.90
54910;BME280;63189;51.240;9.964;2023-03-21T00:56:25;97930.25;;;6.90;90.03
54910;BME280;63189;51.240;9.964;2023-03-21T00:58:51;97965.34;;;7.11;89.91
54910;BME280;63189;51.240;9.964;2023-03-21T01:01:17;97958.47;;;7.10;89.83
54910;BME280;63189;51.240;9.964;2023-03-21T01:03:43;97963.63;;;7.08;89.98
54910;BME280;63189;51.240;9.964;2023-03-21T01:06:12;97962.78;;;7.08;89.96
54910;BME280;63189;51.240;9.964;2023-03-21T01:08:40;97931.97;;;6.91;90.19
54910;BME280;63189;51.240;9.964;2023-03-21T01:11:12;97960.13;;;7.12;89.57
54910;BME280;63189;51.240;9.964;2023-03-21T01:13:38;97960.13;;;7.12;89.78
54910;BME280;63189;51.240;9.964;2023-03-21T01:16:05;97947.22;;;7.09;88.99
54910;BME280;63189;51.240;9.964;2023-03-21T01:18:33;97942.09;;;7.05;89.46
54910;BME280;63189;51.240;9.964;2023-03-21T01:21:00;97964.41;;;7.15;89.44
54910;BME280;63189;51.240;9.964;2023-03-21T01:23:28;97958.34;;;7.16;89.61
54910;BME280;63189;51.240;9.964;2023-03-21T01:25:54;97951.53;;;7.10;89.51
54910;BME280;63189;51.240;9.964;2023-03-21T01:28:21;97955.78;;;7.14;89.13
54910;BME280;63189;51.240;9.964;2023-03-21T01:30:49;97938.63;;;7.06;89.43
54910;BME280;63189;51.240;9.964;2023-03-21T01:33:15;97949.72;;;7.14;89.50
54910;BME280;63189;51.240;9.964;2023-03-21T01:35:41;97947.94;;;7.17;89.07
54910;BME280;63189;51.240;9.964;2023-03-21T01:38:06;97921.31;;;7.08;88.89
54910;BME280;63189;51.240;9.964;2023-03-21T01:40:32;97957.41;;;7.20;89.42
54910;BME280;63189;51.240;9.964;2023-03-21T01:42:57;97953.94;;;7.21;88.70
54910;BME280;63189;51.240;9.964;2023-03-21T01:48:27;97941.03;;;7.16;88.81
54910;BME280;63189;51.240;9.964;2023-03-21T01:50:53;97944.47;;;7.18;88.68
54910;BME280;63189;51.240;9.964;2023-03-21T01:53:22;97935.75;;;7.22;89.18
54910;BME280;63189;51.240;9.964;2023-03-21T01:55:55;97909.28;;;7.04;89.34
54910;BME280;63189;51.240;9.964;2023-03-21T01:58:21;97911.00;;;7.05;89.06
54910;BME280;63189;51.240;9.964;2023-03-21T02:00:49;97936.63;;;7.23;89.13
54910;BME280;63189;51.240;9.964;2023-03-21T02:03:16;97932.34;;;7.20;89.25
54910;BME280;63189;51.240;9.964;2023-03-21T02:06:18;97932.28;;;7.23;88.88
54910;BME280;63189;51.240;9.964;2023-03-21T02:08:40;97923.69;;;7.21;88.89
54910;BME280;63189;51.240;9.964;2023-03-21T02:11:07;97931.47;;;7.21;89.34
54910;BME280;63189;51.240;9.964;2023-03-21T02:13:34;97928.88;;;7.21;89.31
54910;BME280;63189;51.240;9.964;2023-03-21T02:19:07;97921.91;;;7.23;89.13
54910;BME280;63189;51.240;9.964;2023-03-21T02:25:11;97896.09;;;7.16;89.27
54910;BME280;63189;51.240;9.964;2023-03-21T02:27:59;97915.00;;;7.22;88.69
54910;BME280;63189;51.240;9.964;2023-03-21T02:31:02;97911.56;;;7.22;88.54
54910;BME280;63189;51.240;9.964;2023-03-21T02:39:11;97897.97;;;7.09;89.35
54910;BME280;63189;51.240;9.964;2023-03-21T02:44:59;97905.72;;;7.11;89.92
54910;BME280;63189;51.240;9.964;2023-03-21T02:47:33;97900.56;;;7.08;91.19
54910;BME280;63189;51.240;9.964;2023-03-21T02:52:34;97880.94;;;6.94;89.72
54910;BME280;63189;51.240;9.964;2023-03-21T02:55:01;97899.72;;;7.07;89.30
54910;BME280;63189;51.240;9.964;2023-03-21T02:57:29;97905.75;;;7.08;89.25
54910;BME280;63189;51.240;9.964;2023-03-21T02:59:55;97891.16;;;7.04;89.53
54910;BME280;63189;51.240;9.964;2023-03-21T03:02:26;97894.53;;;7.09;89.11
54910;BME280;63189;51.240;9.964;2023-03-21T03:04:52;97893.63;;;7.08;89.61
54910;BME280;63189;51.240;9.964;2023-03-21T03:18:55;97851.72;;;6.85;89.61
54910;BME280;63189;51.240;9.964;2023-03-21T03:21:39;97880.81;;;7.02;89.45
54910;BME280;63189;51.240;9.964;2023-03-21T03:24:33;97890.25;;;7.05;89.81
54910;BME280;63189;51.240;9.964;2023-03-21T03:27:14;97887.69;;;7.03;90.06
54910;BME280;63189;51.240;9.964;2023-03-21T03:29:43;97864.50;;;6.95;90.09
54910;BME280;63189;51.240;9.964;2023-03-21T03:32:16;97887.69;;;7.03;90.05
54910;BME280;63189;51.240;9.964;2023-03-21T03:34:47;97887.59;;;7.09;90.34
54910;BME280;63189;51.240;9.964;2023-03-21T03:37:18;97886.75;;;7.07;90.58
54910;BME280;63189;51.240;9.964;2023-03-21T03:39:50;97870.59;;;6.93;90.03
54910;BME280;63189;51.240;9.964;2023-03-21T03:42:28;97880.94;;;6.94;89.88
54910;BME280;63189;51.240;9.964;2023-03-21T03:44:55;97877.31;;;7.03;90.26
54910;BME280;63189;51.240;9.964;2023-03-21T03:47:23;97888.56;;;7.04;89.56
54910;BME280;63189;51.240;9.964;2023-03-21T03:49:58;97862.84;;;6.91;89.80
54910;BME280;63189;51.240;9.964;2023-03-21T03:52:28;97880.88;;;6.99;90.35
54910;BME280;63189;51.240;9.964;2023-03-21T03:54:56;97856.94;;;6.83;90.50
54910;BME280;63189;51.240;9.964;2023-03-21T03:57:24;97874.00;;;6.95;90.91
54910;BME280;63189;51.240;9.964;2023-03-21T03:59:50;97861.09;;;6.93;90.69
54910;BME280;63189;51.240;9.964;2023-03-21T04:02:16;97868.06;;;6.90;91.74
54910;BME280;63189;51.240;9.964;2023-03-21T04:04:41;97869.75;;;6.92;91.56
54910;BME280;63189;51.240;9.964;2023-03-21T04:07:07;97853.59;;;6.77;91.82
54910;BME280;63189;51.240;9.964;2023-03-21T04:09:33;97865.53;;;6.85;91.57
54910;BME280;63189;51.240;9.964;2023-03-21T04:11:58;97867.25;;;6.88;92.41
54910;BME280;63189;51.240;9.964;2023-03-21T04:14:24;97862.06;;;6.88;92.35
54910;BME280;63189;51.240;9.964;2023-03-21T04:16:50;97828.78;;;6.63;92.30
54910;BME280;63189;51.240;9.964;2023-03-21T04:19:16;97867.28;;;6.85;92.49
54910;BME280;63189;51.240;9.964;2023-03-21T04:21:42;97867.31;;;6.83;92.21
54910;BME280;63189;51.240;9.964;2023-03-21T04:24:07;97853.56;;;6.80;92.17
54910;BME280;63189;51.240;9.964;2023-03-21T04:26:34;97869.81;;;6.89;92.61
54910;BME280;63189;51.240;9.964;2023-03-21T04:29:00;97872.41;;;6.89;92.75
54910;BME280;63189;51.240;9.964;2023-03-21T04:31:26;97860.31;;;6.87;92.71
54910;BME280;63189;51.240;9.964;2023-03-21T04:33:58;97826.97;;;6.69;92.23
54910;BME280;63189;51.240;9.964;2023-03-21T04:36:24;97865.50;;;6.87;92.37
54910;BME280;63189;51.240;9.964;2023-03-21T04:38:52;97862.06;;;6.86;92.79
54910;BME280;63189;51.240;9.964;2023-03-21T04:41:18;97865.47;;;6.90;92.50
54910;BME280;63189;51.240;9.964;2023-03-21T04:43:44;97858.63;;;6.86;92.98
54910;BME280;63189;51.240;9.964;2023-03-21T04:46:10;97848.28;;;6.84;93.37
54910;BME280;63189;51.240;9.964;2023-03-21T04:48:35;97822.63;;;6.71;93.23
54910;BME280;63189;51.240;9.964;2023-03-21T04:51:01;97847.53;;;6.79;92.52
54910;BME280;63189;51.240;9.964;2023-03-21T04:53:27;97838.16;;;6.71;93.46
54910;BME280;63189;51.240;9.964;2023-03-21T04:55:52;97854.31;;;6.85;92.99
54910;BME280;63189;51.240;9.964;2023-03-21T04:58:17;97847.53;;;6.76;93.38
54910;BME280;63189;51.240;9.964;2023-03-21T05:00:45;97845.81;;;6.77;92.79
54910;BME280;63189;51.240;9.964;2023-03-21T05:03:11;97856.97;;;6.82;92.73
54910;BME280;63189;51.240;9.964;2023-03-21T05:05:45;97855.25;;;6.81;92.24
54910;BME280;63189;51.240;9.964;2023-03-21T05:08:11;97859.56;;;6.82;92.21
54910;BME280;63189;51.240;9.964;2023-03-21T05:10:37;97853.59;;;6.77;92.79
54910;BME280;63189;51.240;9.964;2023-03-21T05:13:02;97850.13;;;6.78;92.27
54910;BME280;63189;51.240;9.964;2023-03-21T05:15:28;97859.56;;;6.82;92.87
54910;BME280;63189;51.240;9.964;2023-03-21T05:17:53;97854.41;;;6.80;92.69
54910;BME280;63189;51.240;9.964;2023-03-21T05:20:19;97867.41;;;6.79;91.88
54910;BME280;63189;51.240;9.964;2023-03-21T05:22:44;97865.59;;;6.82;92.46
54910;BME280;63189;51.240;9.964;2023-03-21T05:25:11;97863.91;;;6.80;92.50
54910;BME280;63189;51.240;9.964;2023-03-21T05:27:37;97872.50;;;6.82;92.13
54910;BME280;63189;51.240;9.964;2023-03-21T05:30:15;97861.25;;;6.83;92.83
54910;BME280;63189;51.240;9.964;2023-03-21T05:32:41;97858.69;;;6.83;92.92
54910;BME280;63189;51.240;9.964;2023-03-21T05:35:07;97859.63;;;6.79;92.78
54910;BME280;63189;51.240;9.964;2023-03-21T05:37:32;97839.84;;;6.73;92.98
54910;BME280;63189;51.240;9.964;2023-03-21T05:39:57;97841.50;;;6.76;92.42
54910;BME280;63189;51.240;9.964;2023-03-21T05:42:23;97850.13;;;6.78;92.92
54910;BME280;63189;51.240;9.964;2023-03-21T05:44:49;97852.00;;;6.70;92.95
54910;BME280;63189;51.240;9.964;2023-03-21T05:47:16;97846.75;;;6.73;92.40
54910;BME280;63189;51.240;9.964;2023-03-21T05:49:43;97853.50;;;6.83;92.40
54910;BME280;63189;51.240;9.964;2023-03-21T05:52:09;97859.63;;;6.77;92.94
54910;BME280;63189;51.240;9.964;2023-03-21T05:54:34;97851.88;;;6.76;92.50
54910;BME280;63189;51.240;9.964;2023-03-21T05:57:00;97844.13;;;6.74;92.92
54910;BME280;63189;51.240;9.964;2023-03-21T05:59:26;97848.38;;;6.80;92.99
54910;BME280;63189;51.240;9.964;2023-03-21T06:01:51;97844.09;;;6.76;93.23
54910;BME280;63189;51.240;9.964;2023-03-21T06:04:16;97856.06;;;6.84;92.76
54910;BME280;63189;51.240;9.964;2023-03-21T06:06:42;97849.97;;;6.85;92.58
54910;BME280;63189;51.240;9.964;2023-03-21T06:09:07;97853.34;;;6.92;92.74
54910;BME280;63189;51.240;9.964;2023-03-21T06:11:36;97862.88;;;6.90;91.83
54910;BME280;63189;51.240;9.964;2023-03-21T06:14:02;97860.28;;;6.90;91.97
54910;BME280;63189;51.240;9.964;2023-03-21T06:16:28;97871.50;;;6.90;92.43
54910;BME280;63189;51.240;9.964;2023-03-21T06:18:54;97863.78;;;6.86;92.83
54910;BME280;63189;51.240;9.964;2023-03-21T06:21:20;97850.16;;;6.75;92.33
54910;BME280;63189;51.240;9.964;2023-03-21T06:23:46;97833.84;;;6.71;92.39
54910;BME280;63189;51.240;9.964;2023-03-21T06:26:12;97861.19;;;6.87;92.48
54910;BME280;63189;51.240;9.964;2023-03-21T06:28:38;97862.06;;;6.88;92.45
54910;BME280;63189;51.240;9.964;2023-03-21T06:31:03;97863.75;;;6.87;92.38
54910;BME280;63189;51.240;9.964;2023-03-21T06:33:29;97858.56;;;6.90;91.81
54910;BME280;63189;51.240;9.964;2023-03-21T06:35:56;97867.13;;;6.94;91.90
54910;BME280;63189;51.240;9.964;2023-03-21T06:38:22;97862.72;;;6.99;91.41
54910;BME280;63189;51.240;9.964;2023-03-21T06:40:48;97866.09;;;7.03;91.36
54910;BME280;63189;51.240;9.964;2023-03-21T06:43:14;97859.28;;;6.99;91.03
54910;BME280;63189;51.240;9.964;2023-03-21T06:45:43;97866.91;;;7.06;90.58
54910;BME280;63189;51.240;9.964;2023-03-21T06:48:08;97846.31;;;6.99;90.78
54910;BME280;63189;51.240;9.964;2023-03-21T06:50:34;97860.75;;;7.12;90.77
54910;BME280;63189;51.240;9.964;2023-03-21T06:53:00;97850.28;;;7.16;90.76
54910;BME280;63189;51.240;9.964;2023-03-21T06:55:25;97850.25;;;7.19;90.60
54910;BME280;63189;51.240;9.964;2023-03-21T06:57:53;97857.88;;;7.27;90.39
54910;BME280;63189;51.240;9.964;2023-03-21T07:00:19;97849.97;;;7.33;90.01
54910;BME280;63189;51.240;9.964;2023-03-21T07:02:45;97849.84;;;7.41;90.27
54910;BME280;63189;51.240;9.964;2023-03-21T07:05:11;97859.19;;;7.48;89.81
54910;BME280;63189;51.240;9.964;2023-03-21T07:07:37;97852.22;;;7.50;90.45
54910;BME280;63189;51.240;9.964;2023-03-21T07:10:03;97859.84;;;7.59;89.64
54910;BME280;63189;51.240;9.964;2023-03-21T07:12:29;97850.47;;;7.52;90.70
54910;BME280;63189;51.240;9.964;2023-03-21T07:14:58;97858.09;;;7.61;91.00
54910;BME280;63189;51.240;9.964;2023-03-21T07:17:24;97845.97;;;7.62;89.98
54910;BME280;63189;51.240;9.964;2023-03-21T07:19:49;97862.28;;;7.67;90.01
54910;BME280;63189;51.240;9.964;2023-03-21T07:22:14;97839.34;;;7.47;89.92
54910;BME280;63189;51.240;9.964;2023-03-21T07:24:40;97858.94;;;7.62;89.85
54910;BME280;63189;51.240;9.964;2023-03-21T07:27:06;97866.53;;;7.69;88.81
54910;BME280;63189;51.240;9.964;2023-03-21T07:29:31;97861.31;;;7.72;89.35
54910;BME280;63189;51.240;9.964;2023-03-21T07:31:56;97864.66;;;7.77;89.05
54910;BME280;63189;51.240;9.964;2023-03-21T07:34:22;97864.63;;;7.79;88.73
54910;BME280;63189;51.240;9.964;2023-03-21T07:36:51;97856.00;;;7.77;87.99
54910;BME280;63189;51.240;9.964;2023-03-21T07:39:16;97856.94;;;7.74;88.92
54910;BME280;63189;51.240;9.964;2023-03-21T07:41:43;97864.53;;;7.84;88.92
54910;BME280;63189;51.240;9.964;2023-03-21T07:44:09;97862.84;;;7.82;88.83
54910;BME280;63189;51.240;9.964;2023-03-21T07:46:34;97860.28;;;7.79;88.13
54910;BME280;63189;51.240;9.964;2023-03-21T07:48:59;97864.50;;;7.85;89.11
54910;BME280;63189;51.240;9.964;2023-03-21T07:51:25;97867.16;;;7.82;88.84
54910;BME280;63189;51.240;9.964;2023-03-21T07:53:50;97862.78;;;7.84;89.20
54910;BME280;63189;51.240;9.964;2023-03-21T07:56:16;97862.84;;;7.81;90.37
54910;BME280;63189;51.240;9.964;2023-03-21T07:58:41;97855.91;;;7.83;89.24
54910;BME280;63189;51.240;9.964;2023-03-21T08:01:06;97850.63;;;7.86;89.51
54910;BME280;63189;51.240;9.964;2023-03-21T08:03:32;97820.88;;;7.62;89.94
54910;BME280;63189;51.240;9.964;2023-03-21T08:05:59;97845.34;;;7.91;89.86
54910;BME280;63189;51.240;9.964;2023-03-21T08:08:27;97854.66;;;7.99;90.72
54910;BME280;63189;51.240;9.964;2023-03-21T08:10:53;97838.16;;;8.03;90.12
54910;BME280;63189;51.240;9.964;2023-03-21T08:13:18;97847.31;;;8.18;89.67
54910;BME280;63189;51.240;9.964;2023-03-21T08:15:43;97848.72;;;8.34;89.32
54910;BME280;63189;51.240;9.964;2023-03-21T08:18:09;97845.88;;;8.44;88.08
54910;BME280;63189;51.240;9.964;2023-03-21T08:20:35;97839.66;;;8.51;87.60
54910;BME280;63189;51.240;9.964;2023-03-21T08:23:00;97828.56;;;8.46;87.57
54910;BME280;63189;51.240;9.964;2023-03-21T08:25:26;97837.16;;;8.48;88.79
54910;BME280;63189;51.240;9.964;2023-03-21T08:27:51;97832.84;;;8.47;87.74
54910;BME280;63189;51.240;9.964;2023-03-21T08:30:22;97850.75;;;8.59;88.13
54910;BME280;63189;51.240;9.964;2023-03-21T08:32:48;97823.22;;;8.50;88.40
54910;BME280;63189;51.240;9.964;2023-03-21T08:35:15;97850.47;;;8.70;87.21
54910;BME280;63189;51.240;9.964;2023-03-21T08:37:41;97847.06;;;8.67;87.84
54910;BME280;63189;51.240;9.964;2023-03-21T08:40:13;97844.47;;;8.67;86.72
54910;BME280;63189;51.240;9.964;2023-03-21T08:42:40;97854.66;;;8.75;87.41
54910;BME280;63189;51.240;9.964;2023-03-21T08:45:06;97846.72;;;8.81;86.54
54910;BME280;63189;51.240;9.964;2023-03-21T08:47:33;97844.88;;;8.85;86.07
54910;BME280;63189;51.240;9.964;2023-03-21T08:49:58;97856.00;;;8.91;86.98
54910;BME280;63189;51.240;9.964;2023-03-21T08:52:24;97836.75;;;8.99;87.09
54910;BME280;63189;51.240;9.964;2023-03-21T08:54:51;97845.34;;;9.01;86.72
54910;BME280;63189;51.240;9.964;2023-03-21T08:57:16;97830.75;;;8.96;86.71
54910;BME280;63189;51.240;9.964;2023-03-21T08:59:41;97838.25;;;9.07;86.35
54910;BME280;63189;51.240;9.964;2023-03-21T09:02:09;97843.91;;;9.23;86.05
54910;BME280;63189;51.240;9.964;2023-03-21T09:04:35;97829.13;;;9.23;85.57
54910;BME280;63189;51.240;9.964;2023-03-21T09:07:00;97817.84;;;9.24;85.03
54910;BME280;63189;51.240;9.964;2023-03-21T09:09:29;97839.75;;;9.48;84.02
54910;BME280;63189;51.240;9.964;2023-03-21T09:11:55;97843.69;;;9.62;84.57
54910;BME280;63189;51.240;9.964;2023-03-21T09:14:20;97847.00;;;9.67;82.65
54910;BME280;63189;51.240;9.964;2023-03-21T09:16:45;97822.09;;;9.58;83.43
54910;BME280;63189;51.240;9.964;2023-03-21T09:19:11;97841.38;;;9.82;82.65
54910;BME280;63189;51.240;9.964;2023-03-21T09:21:36;97849.81;;;9.90;81.90
54910;BME280;63189;51.240;9.964;2023-03-21T09:24:03;97844.41;;;9.96;81.07
54910;BME280;63189;51.240;9.964;2023-03-21T09:26:29;97842.53;;;10.01;82.69
54910;BME280;63189;51.240;9.964;2023-03-21T09:28:55;97845.03;;;10.04;82.26
54910;BME280;63189;51.240;9.964;2023-03-21T09:31:20;97845.16;;;10.00;83.38
54910;BME280;63189;51.240;9.964;2023-03-21T09:33:51;97823.09;;;9.83;82.13
54910;BME280;63189;51.240;9.964;2023-03-21T09:36:18;97850.38;;;10.00;81.42
54910;BME280;63189;51.240;9.964;2023-03-21T09:38:46;97846.13;;;9.97;82.44
54910;BME280;63189;51.240;9.964;2023-03-21T09:41:40;97844.03;;;10.08;83.18
54910;BME280;63189;51.240;9.964;2023-03-21T09:44:30;97850.94;;;10.11;83.36
54910;BME280;63189;51.240;9.964;2023-03-21T09:47:16;97844.81;;;10.12;81.27
54910;BME280;63189;51.240;9.964;2023-03-21T09:49:58;97849.25;;;10.08;79.60
54910;BME280;63189;51.240;9.964;2023-03-21T09:52:36;97845.00;;;10.06;80.35
54910;BME280;63189;51.240;9.964;2023-03-21T09:55:08;97832.94;;;10.03;80.49
54910;BME280;63189;51.240;9.964;2023-03-21T09:57:44;97830.31;;;10.03;82.42
54910;BME280;63189;51.240;9.964;2023-03-21T10:00:16;97832.66;;;10.12;82.77
54910;BME280;63189;51.240;9.964;2023-03-21T10:02:48;97844.63;;;10.18;81.58
54910;BME280;63189;51.240;9.964;2023-03-21T10:05:21;97835.91;;;10.19;82.59
54910;BME280;63189;51.240;9.964;2023-03-21T10:10:31;97828.94;;;10.20;82.12
54910;BME280;63189;51.240;9.964;2023-03-21T10:13:00;97831.22;;;10.32;81.61
54910;BME280;63189;51.240;9.964;2023-03-21T10:15:26;97833.56;;;10.39;80.57
54910;BME280;63189;51.240;9.964;2023-03-21T10:18:04;97830.53;;;10.53;82.80
54910;BME280;63189;51.240;9.964;2023-03-21T10:20:34;97818.06;;;10.63;81.40
54910;BME280;63189;51.240;9.964;2023-03-21T10:23:03;97825.25;;;10.81;82.53
54910;BME280;63189;51.240;9.964;2023-03-21T10:25:38;97810.25;;;10.88;81.26
54910;BME280;63189;51.240;9.964;2023-03-21T10:28:06;97808.31;;;10.93;79.56
54910;BME280;63189;51.240;9.964;2023-03-21T10:33:00;97803.03;;;10.96;80.63
54910;BME280;63189;51.240;9.964;2023-03-21T10:35:31;97802.19;;;10.94;78.41
54910;BME280;63189;51.240;9.964;2023-03-21T10:37:59;97797.81;;;10.96;79.15
54910;BME280;63189;51.240;9.964;2023-03-21T10:40:25;97794.22;;;10.98;80.39
54910;BME280;63189;51.240;9.964;2023-03-21T10:42:54;97783.84;;;10.97;78.86
54910;BME280;63189;51.240;9.964;2023-03-21T10:45:21;97797.38;;;11.08;80.57
54910;BME280;63189;51.240;9.964;2023-03-21T10:47:48;97798.28;;;11.07;79.28
54910;BME280;63189;51.240;9.964;2023-03-21T10:50:16;97797.78;;;11.21;81.46
54910;BME280;63189;51.240;9.964;2023-03-21T10:52:47;97807.31;;;11.22;79.61
54910;BME280;63189;51.240;9.964;2023-03-21T10:55:27;97796.81;;;11.23;79.59
54910;BME280;63189;51.240;9.964;2023-03-21T10:58:06;97792.69;;;11.18;nan
54910;BME280;63189;51.240;9.964;2023-03-21T11:00:42;97798.06;;;11.13;79.34
54910;BME280;63189;51.240;9.964;2023-03-21T11:03:29;97794.59;;;11.13;79.22
54910;BME280;63189;51.240;9.964;2023-03-21T11:06:01;97781.00;;;11.03;78.75
54910;BME280;63189;51.240;9.964;2023-03-21T11:08:27;97779.00;;;11.11;79.81
54910;BME280;63189;51.240;9.964;2023-03-21T11:11:01;97772.59;;;11.20;80.77
54910;BME280;63189;51.240;9.964;2023-03-21T11:13:42;97751.19;;;11.10;79.81
54910;BME280;63189;51.240;9.964;2023-03-21T11:16:23;97779.56;;;11.19;80.05
54910;BME280;63189;51.240;9.964;2023-03-21T11:18:51;97775.22;;;11.20;80.34
54910;BME280;63189;51.240;9.964;2023-03-21T11:21:20;97782.00;;;11.24;81.39
54910;BME280;63189;51.240;9.964;2023-03-21T11:23:54;97773.28;;;11.25;80.49
54910;BME280;63189;51.240;9.964;2023-03-21T11:26:25;97780.25;;;11.24;80.33
54910;BME280;63189;51.240;9.964;2023-03-21T11:28:52;97787.03;;;11.30;80.52
54910;BME280;63189;51.240;9.964;2023-03-21T11:31:18;97780.22;;;11.26;80.58
54910;BME280;63189;51.240;9.964;2023-03-21T11:33:53;97774.81;;;11.07;79.82
54910;BME280;63189;51.240;9.964;2023-03-21T11:38:55;97783.31;;;11.12;81.09
54910;BME280;63189;51.240;9.964;2023-03-21T11:41:29;97778.19;;;11.09;80.61
54910;BME280;63189;51.240;9.964;2023-03-21T11:43:55;97778.47;;;11.02;80.63
54910;BME280;63189;51.240;9.964;2023-03-21T11:46:29;97774.22;;;10.99;80.90
54910;BME280;63189;51.240;9.964;2023-03-21T11:48:56;97769.72;;;11.03;81.37
54910;BME280;63189;51.240;9.964;2023-03-21T11:56:46;97770.03;;;10.95;80.75
54910;BME280;63189;51.240;9.964;2023-03-21T12:05:16;97771.28;;;10.83;81.28
54910;BME280;63189;51.240;9.964;2023-03-21T12:23:18;97766.16;;;10.55;83.35
54910;BME280;63189;51.240;9.964;2023-03-21T12:26:11;97765.00;;;10.37;85.17
54910;BME280;63189;51.240;9.964;2023-03-21T12:31:39;97753.47;;;10.45;85.57
54910;BME280;63189;51.240;9.964;2023-03-21T12:40:16;97743.78;;;10.48;85.67
54910;BME280;63189;51.240;9.964;2023-03-21T12:43:07;97743.31;;;10.62;85.04
54910;BME280;63189;51.240;9.964;2023-03-21T12:45:41;97749.38;;;10.62;84.66
54910;BME280;63189;51.240;9.964;2023-03-21T12:50:53;97726.81;;;10.61;85.12
54910;BME280;63189;51.240;9.964;2023-03-21T12:56:08;97716.03;;;10.47;86.98
54910;BME280;63189;51.240;9.964;2023-03-21T12:58:45;97728.22;;;10.47;87.19
54910;BME280;63189;51.240;9.964;2023-03-21T13:01:14;97743.13;;;10.43;87.85
54910;BME280;63189;51.240;9.964;2023-03-21T13:03:45;97735.47;;;10.37;88.88
54910;BME280;63189;51.240;9.964;2023-03-21T13:06:16;97735.19;;;10.46;88.93
54910;BME280;63189;51.240;9.964;2023-03-21T13:08:50;97733.78;;;10.36;88.17
54910;BME280;63189;51.240;9.964;2023-03-21T13:11:22;97726.75;;;10.38;87.64
54910;BME280;63189;51.240;9.964;2023-03-21T13:14:13;97727.84;;;10.31;88.35
54910;BME280;63189;51.240;9.964;2023-03-21T13:16:48;97722.50;;;10.35;88.52
54910;BME280;63189;51.240;9.964;2023-03-21T13:19:27;97696.16;;;10.17;88.64
54910;BME280;63189;51.240;9.964;2023-03-21T13:22:05;97717.50;;;10.29;88.28
54910;BME280;63189;51.240;9.964;2023-03-21T13:29:45;97708.19;;;10.21;89.07
54910;BME280;63189;51.240;9.964;2023-03-21T13:32:30;97716.16;;;10.16;89.41
54910;BME280;63189;51.240;9.964;2023-03-21T13:35:21;97710.22;;;10.12;90.42
54910;BME280;63189;51.240;9.964;2023-03-21T13:38:05;97709.50;;;10.07;89.43
54910;BME280;63189;51.240;9.964;2023-03-21T13:40:44;97708.81;;;10.02;90.87
54910;BME280;63189;51.240;9.964;2023-03-21T13:45:55;97710.69;;;9.97;91.00
54910;BME280;63189;51.240;9.964;2023-03-21T13:48:32;97705.38;;;10.00;91.96
54910;BME280;63189;51.240;9.964;2023-03-21T13:51:05;97685.84;;;9.87;93.12
54910;BME280;63189;51.240;9.964;2023-03-21T13:53:38;97703.66;;;9.99;94.17
54910;BME280;63189;51.240;9.964;2023-03-21T13:58:49;97698.00;;;9.87;96.03
54910;BME280;63189;51.240;9.964;2023-03-21T14:03:58;97673.16;;;9.76;97.45
54910;BME280;63189;51.240;9.964;2023-03-21T14:06:24;97685.03;;;9.85;99.42
54910;BME280;63189;51.240;9.964;2023-03-21T14:08:55;97648.81;;;9.51;100.00
54910;BME280;63189;51.240;9.964;2023-03-21T14:11:21;97676.91;;;9.68;100.00
54910;BME280;63189;51.240;9.964;2023-03-21T14:13:48;97662.09;;;9.70;100.00
54910;BME280;63189;51.240;9.964;2023-03-21T14:16:15;97670.56;;;9.76;100.00
54910;BME280;63189;51.240;9.964;2023-03-21T14:18:51;97678.53;;;9.72;100.00
54910;BME280;63189;51.240;9.964;2023-03-21T14:21:24;97675.97;;;9.70;100.00
54910;BME280;63189;51.240;9.964;2023-03-21T14:24:10;97656.97;;;9.67;100.00
54910;BME280;63189;51.240;9.964;2023-03-21T14:26:40;97658.50;;;9.74;100.00
54910;BME280;63189;51.240;9.964;2023-03-21T14:29:08;97662.63;;;9.81;100.00
54910;BME280;63189;51.240;9.964;2023-03-21T14:31:38;97659.06;;;9.83;100.00
54910;BME280;63189;51.240;9.964;2023-03-21T14:34:05;97652.28;;;9.78;100.00
54910;BME280;63189;51.240;9.964;2023-03-21T14:36:32;97657.41;;;9.81;100.00
54910;BME280;63189;51.240;9.964;2023-03-21T14:39:30;97655.78;;;9.77;100.00
54910;BME280;63189;51.240;9.964;2023-03-21T14:42:02;97650.69;;;9.74;100.00
54910;BME280;63189;51.240;9.964;2023-03-21T14:47:04;97639.53;;;9.70;100.00
54910;BME280;63189;51.240;9.964;2023-03-21T14:49:33;97632.25;;;9.53;100.00
54910;BME280;63189;51.240;9.964;2023-03-21T14:52:02;97635.34;;;9.65;100.00
54910;BME280;63189;51.240;9.964;2023-03-21T14:54:28;97645.88;;;9.62;100.00